Malibu — ZCGB — position and weather

sailwx.info

Track history (hours):
 
Tides and Currents Weather Stations Pressure Air Temp Water Temp Dewpoint Dewpoint Depression Visibility Wind Speed Wind Dir Waves Ship Positions

Malibu

Last reported at 2015-Jul-27 18:33 UTC. Time now 2015-Jul-29 00:42 UTC.
Position N 38°54' E 001°28'.

Length 50 m; draft 3.4 m.

Type: Pleasure craft. MMSI: 319663000.

Date/timePositionNaut miles runAvg speedWind from/ knotsBaromVisibWave heightAir tempDewpointWater temp
2015-Jul-27 18:33N 38°54' E 001°28'8 7.6
2015-Jul-27 17:33N 38°51' E 001°19'1 0.6
2015-Jul-27 16:33N 38°52' E 001°19'5 0.6
2015-Jul-27 08:29N 38°49' E 001°24'3 0.1
2015-Jul-25 18:21N 38°48' E 001°27'1 0.2
2015-Jul-25 11:18N 38°46' E 001°26'0 0.0
2015-Jul-25 10:30N 38°46' E 001°26'0 0.0
2015-Jul-25 08:26N 38°46' E 001°26'6 4.6
2015-Jul-25 07:08N 38°52' E 001°28'2 0.3
2015-Jul-24 22:33N 38°55' E 001°28'0 0.0
2015-Jul-24 21:33N 38°55' E 001°28'0 0.0
2015-Jul-24 20:33N 38°55' E 001°28'1 1.3
2015-Jul-24 19:32N 38°53' E 001°28'7 1.7
2015-Jul-24 15:30N 38°46' E 001°26'0 0.0
2015-Jul-24 14:31N 38°46' E 001°26'7 0.4
2015-Jul-23 19:12N 38°54' E 001°27'5 0.2
2015-Jul-22 19:33N 38°50' E 001°31'1211.6
2015-Jul-22 18:33N 38°39' E 001°35'5 0.6
2015-Jul-22 10:31N 38°41' E 001°29'0 0.1
2015-Jul-22 09:23N 38°41' E 001°29'0 0.5
2015-Jul-22 08:31N 38°40' E 001°30'5 4.2
2015-Jul-22 07:24N 38°39' E 001°35'1011.8
2015-Jul-22 06:33N 38°48' E 001°31'7 5.0
2015-Jul-22 05:11N 38°55' E 001°28'0 0.0
2015-Jul-22 04:11N 38°55' E 001°28'0 0.0
2015-Jul-22 03:28N 38°55' E 001°28'0 0.0
2015-Jul-21 22:21N 38°55' E 001°28'2 0.7
2015-Jul-21 19:33N 38°53' E 001°28'7 6.5
2015-Jul-21 18:32N 38°46' E 001°26'0 0.0
2015-Jul-21 13:24N 38°46' E 001°26'0 0.0
2015-Jul-21 12:24N 38°46' E 001°26'0 0.0
2015-Jul-21 11:30N 38°46' E 001°26'0 0.1
2015-Jul-21 07:33N 38°46' E 001°25'1 0.8
2015-Jul-21 06:30N 38°45' E 001°26'0 0.0
2015-Jul-21 04:09N 38°45' E 001°26'0 0.0
2015-Jul-21 03:30N 38°45' E 001°26'0 0.0
2015-Jul-21 02:23N 38°45' E 001°26'0 0.0
2015-Jul-21 01:30N 38°45' E 001°26'0 0.0
2015-Jul-21 00:18N 38°45' E 001°26'0 0.0
2015-Jul-20 23:18N 38°45' E 001°26'0 0.0
2015-Jul-20 12:32N 38°45' E 001°26'1 0.8
2015-Jul-20 11:14N 38°46' E 001°26'0 0.0
2015-Jul-20 10:33N 38°46' E 001°26'0 0.0
2015-Jul-20 09:33N 38°46' E 001°26'0 0.0
2015-Jul-20 08:33N 38°46' E 001°26'6 5.6
2015-Jul-20 07:31N 38°48' E 001°19'12 9.5
2015-Jul-20 06:13N 38°60' E 001°12'2 0.2
2015-Jul-19 20:07N 38°58' E 001°13'0 0.0
2015-Jul-19 19:32N 38°58' E 001°13'0 0.0
2015-Jul-19 18:33N 38°58' E 001°13'0 0.0
2015-Jul-19 17:33N 38°58' E 001°13'0 0.0
2015-Jul-19 16:33N 38°58' E 001°13'0 0.0
2015-Jul-19 15:33N 38°58' E 001°13'0 0.0
2015-Jul-19 14:32N 38°58' E 001°13'0 0.0
2015-Jul-19 13:33N 38°58' E 001°13'4 3.8
2015-Jul-19 12:34N 38°55' E 001°11'1010.3
2015-Jul-19 11:33N 38°49' E 001°22'7 6.6
2015-Jul-19 10:33N 38°55' E 001°26'1 0.0
2015-Jul-18 20:26N 38°54' E 001°27'5 5.6
2015-Jul-18 19:33N 38°50' E 001°23'0 0.0
2015-Jul-18 18:28N 38°50' E 001°23'0 0.0
2015-Jul-18 17:30N 38°50' E 001°23'0 0.0
2015-Jul-18 16:30N 38°50' E 001°23'1 0.6
2015-Jul-18 14:32N 38°49' E 001°24'6 0.6
2015-Jul-18 04:04N 38°55' E 001°26'  
Track history (hours):
 
Tides and Currents Weather Stations Pressure Air Temp Water Temp Dewpoint Dewpoint Depression Visibility Wind Speed Wind Dir Waves Ship Positions

Malibu

Last reported at 2015-Jul-27 18:33 UTC. Time now 2015-Jul-29 00:42 UTC.
Position N 38°54' E 001°28'.

Length 50 m; draft 3.4 m.

Type: Pleasure craft. MMSI: 319663000.

Date/timePositionNaut miles runAvg speedWind from/ knotsBaromVisibWave heightAir tempDewpointWater temp
2015-Jul-27 18:33N 38°54' E 001°28'8 7.6
2015-Jul-27 17:33N 38°51' E 001°19'1 0.6
2015-Jul-27 16:33N 38°52' E 001°19'5 0.6
2015-Jul-27 08:29N 38°49' E 001°24'3 0.1
2015-Jul-25 18:21N 38°48' E 001°27'1 0.2
2015-Jul-25 11:18N 38°46' E 001°26'0 0.0
2015-Jul-25 10:30N 38°46' E 001°26'0 0.0
2015-Jul-25 08:26N 38°46' E 001°26'6 4.6
2015-Jul-25 07:08N 38°52' E 001°28'2 0.3
2015-Jul-24 22:33N 38°55' E 001°28'0 0.0
2015-Jul-24 21:33N 38°55' E 001°28'0 0.0
2015-Jul-24 20:33N 38°55' E 001°28'1 1.3
2015-Jul-24 19:32N 38°53' E 001°28'7 1.7
2015-Jul-24 15:30N 38°46' E 001°26'0 0.0
2015-Jul-24 14:31N 38°46' E 001°26'7 0.4
2015-Jul-23 19:12N 38°54' E 001°27'5 0.2
2015-Jul-22 19:33N 38°50' E 001°31'1211.6
2015-Jul-22 18:33N 38°39' E 001°35'5 0.6
2015-Jul-22 10:31N 38°41' E 001°29'0 0.1
2015-Jul-22 09:23N 38°41' E 001°29'0 0.5
2015-Jul-22 08:31N 38°40' E 001°30'5 4.2
2015-Jul-22 07:24N 38°39' E 001°35'1011.8
2015-Jul-22 06:33N 38°48' E 001°31'7 5.0
2015-Jul-22 05:11N 38°55' E 001°28'0 0.0
2015-Jul-22 04:11N 38°55' E 001°28'0 0.0
2015-Jul-22 03:28N 38°55' E 001°28'0 0.0
2015-Jul-21 22:21N 38°55' E 001°28'2 0.7
2015-Jul-21 19:33N 38°53' E 001°28'7 6.5
2015-Jul-21 18:32N 38°46' E 001°26'0 0.0
2015-Jul-21 13:24N 38°46' E 001°26'0 0.0
2015-Jul-21 12:24N 38°46' E 001°26'0 0.0
2015-Jul-21 11:30N 38°46' E 001°26'0 0.1
2015-Jul-21 07:33N 38°46' E 001°25'1 0.8
2015-Jul-21 06:30N 38°45' E 001°26'0 0.0
2015-Jul-21 04:09N 38°45' E 001°26'0 0.0
2015-Jul-21 03:30N 38°45' E 001°26'0 0.0
2015-Jul-21 02:23N 38°45' E 001°26'0 0.0
2015-Jul-21 01:30N 38°45' E 001°26'0 0.0
2015-Jul-21 00:18N 38°45' E 001°26'0 0.0
2015-Jul-20 23:18N 38°45' E 001°26'0 0.0
2015-Jul-20 12:32N 38°45' E 001°26'1 0.8
2015-Jul-20 11:14N 38°46' E 001°26'0 0.0
2015-Jul-20 10:33N 38°46' E 001°26'0 0.0
2015-Jul-20 09:33N 38°46' E 001°26'0 0.0
2015-Jul-20 08:33N 38°46' E 001°26'6 5.6
2015-Jul-20 07:31N 38°48' E 001°19'12 9.5
2015-Jul-20 06:13N 38°60' E 001°12'2 0.2
2015-Jul-19 20:07N 38°58' E 001°13'0 0.0
2015-Jul-19 19:32N 38°58' E 001°13'0 0.0
2015-Jul-19 18:33N 38°58' E 001°13'0 0.0
2015-Jul-19 17:33N 38°58' E 001°13'0 0.0
2015-Jul-19 16:33N 38°58' E 001°13'0 0.0
2015-Jul-19 15:33N 38°58' E 001°13'0 0.0
2015-Jul-19 14:32N 38°58' E 001°13'0 0.0
2015-Jul-19 13:33N 38°58' E 001°13'4 3.8
2015-Jul-19 12:34N 38°55' E 001°11'1010.3
2015-Jul-19 11:33N 38°49' E 001°22'7 6.6
2015-Jul-19 10:33N 38°55' E 001°26'1 0.0
2015-Jul-18 20:26N 38°54' E 001°27'5 5.6
2015-Jul-18 19:33N 38°50' E 001°23'0 0.0
2015-Jul-18 18:28N 38°50' E 001°23'0 0.0
2015-Jul-18 17:30N 38°50' E 001°23'0 0.0
2015-Jul-18 16:30N 38°50' E 001°23'1 0.6
2015-Jul-18 14:32N 38°49' E 001°24'6 0.6
2015-Jul-18 04:04N 38°55' E 001°26'  

Dump ship's entire track history